Time;durP1;ratioP1;P1;durP2;ratioP2;P2;SDS_P1;SDS_P2;PMS_P1;PMS_P2;Temp;Humidity;BMP_temperature;BMP_pressure;BME280_temperature;BME280_humidity;BME280_pressure;Samples;Min_cycle;Max_cycle;Signal;HPM_P1;HPM_P2
2022/09/05 00:01:31;;;;;;;10.90;5.30;;;20.00;99.90;;;;;;4995687;28;20691;-53
2022/09/05 00:04:25;;;;;;;8.80;5.60;;;20.10;99.90;;;;;;4988977;28;20200;-52
2022/09/05 00:07:20;;;;;;;8.70;5.57;;;20.10;99.90;;;;;;4991072;28;20210;-52
2022/09/05 00:10:18;;;;;;;9.17;5.60;;;20.00;99.90;;;;;;4991075;28;20284;-52
2022/09/05 00:12:47;;;;;;;6.17;5.57;;;19.90;99.90;;;;;;4989793;28;20222;-52
2022/09/05 00:15:28;;;;;;;9.57;5.80;;;19.80;99.90;;;;;;4994518;28;20201;-52
2022/09/05 00:18:24;;;;;;;9.37;6.00;;;19.80;99.90;;;;;;4996595;28;20247;-52
2022/09/05 00:21:19;;;;;;;9.23;5.70;;;19.80;99.90;;;;;;4974585;28;20217;-52
2022/09/05 00:24:42;;;;;;;7.50;5.47;;;19.80;99.90;;;;;;4995652;28;20209;-52
2022/09/05 00:27:49;;;;;;;8.13;6.40;;;19.80;99.90;;;;;;4995865;28;20209;-52
2022/09/05 00:30:19;;;;;;;9.00;6.30;;;19.80;99.90;;;;;;4975339;28;20304;-52
2022/09/05 00:33:31;;;;;;;8.07;6.63;;;19.80;99.90;;;;;;4979142;28;20220;-52
2022/09/05 00:36:16;;;;;;;7.97;6.70;;;19.70;99.90;;;;;;4988807;28;21140;-51
2022/09/05 00:38:56;;;;;;;10.63;6.97;;;19.80;99.90;;;;;;4977565;28;20202;-52
2022/09/05 00:41:25;;;;;;;9.83;6.63;;;19.70;99.90;;;;;;4971985;28;20830;-51
2022/09/05 00:43:55;;;;;;;9.17;7.77;;;19.60;99.90;;;;;;4975126;28;20205;-52
2022/09/05 00:46:30;;;;;;;10.60;6.73;;;19.60;99.90;;;;;;4979919;28;20296;-52
2022/09/05 00:49:26;;;;;;;9.50;6.87;;;19.70;99.90;;;;;;4983628;28;20205;-51
2022/09/05 00:52:09;;;;;;;10.17;6.87;;;19.70;99.90;;;;;;4987317;28;20329;-52
2022/09/05 00:54:42;;;;;;;10.80;6.80;;;19.60;99.90;;;;;;4990662;28;20221;-52
2022/09/05 00:57:43;;;;;;;14.30;7.80;;;19.50;99.90;;;;;;4985905;28;20304;-51
2022/09/05 01:00:23;;;;;;;11.60;7.80;;;19.50;99.90;;;;;;4983127;28;20259;-52
2022/09/05 01:03:08;;;;;;;7.83;7.03;;;19.50;99.90;;;;;;4976926;28;20340;-51
2022/09/05 01:05:41;;;;;;;11.47;7.60;;;19.50;99.90;;;;;;4988537;28;20202;-52
2022/09/05 01:08:37;;;;;;;11.03;8.07;;;19.50;99.90;;;;;;4993959;28;20255;-52
2022/09/05 01:11:09;;;;;;;10.43;7.63;;;19.50;99.90;;;;;;4975182;28;20197;-52
2022/09/05 01:13:46;;;;;;;10.63;7.63;;;19.50;99.90;;;;;;4986462;28;20718;-51
2022/09/05 01:16:21;;;;;;;8.80;7.20;;;19.50;99.90;;;;;;4987233;28;20230;-51
2022/09/05 01:19:33;;;;;;;11.57;8.00;;;19.50;99.90;;;;;;4988670;28;20205;-52
2022/09/05 01:22:24;;;;;;;13.53;8.60;;;19.50;99.90;;;;;;4982417;28;20272;-52
2022/09/05 01:25:19;;;;;;;8.67;7.47;;;19.50;99.90;;;;;;4981419;28;20201;-51
2022/09/05 01:28:17;;;;;;;12.37;7.77;;;19.50;99.90;;;;;;4993549;28;20233;-54
2022/09/05 01:31:08;;;;;;;8.23;7.40;;;19.40;99.90;;;;;;4985646;28;20214;-53
2022/09/05 01:33:58;;;;;;;8.67;7.47;;;19.40;99.90;;;;;;4989732;28;20297;-52
2022/09/05 01:36:57;;;;;;;7.87;7.07;;;19.40;99.90;;;;;;4992396;28;20309;-53
2022/09/05 01:39:57;;;;;;;9.40;7.37;;;19.40;99.90;;;;;;4960072;28;20678;-53
2022/09/05 01:43:24;;;;;;;9.83;7.07;;;19.50;99.90;;;;;;4991100;28;20930;-55
2022/09/05 01:46:17;;;;;;;9.53;8.33;;;19.40;99.90;;;;;;4950024;28;20216;-53
2022/09/05 01:49:11;;;;;;;9.67;7.57;;;19.30;99.90;;;;;;4987571;28;20206;-52
2022/09/05 01:51:51;;;;;;;12.20;7.30;;;19.40;99.90;;;;;;4991009;28;20237;-53
2022/09/05 01:54:27;;;;;;;11.43;7.43;;;19.30;99.90;;;;;;4995020;28;20257;-54
2022/09/05 01:57:29;;;;;;;9.90;8.17;;;19.30;99.90;;;;;;4994723;28;20319;-53
2022/09/05 01:59:59;;;;;;;9.53;7.87;;;19.20;99.90;;;;;;4959112;28;20240;-53
2022/09/05 02:02:50;;;;;;;10.07;8.23;;;19.20;99.90;;;;;;4990916;28;20263;-53
2022/09/05 02:05:32;;;;;;;9.63;8.00;;;19.10;99.90;;;;;;4995403;28;20210;-52
2022/09/05 02:08:15;;;;;;;9.83;8.07;;;19.10;99.90;;;;;;4995573;28;20209;-51
2022/09/05 02:10:47;;;;;;;10.73;8.43;;;19.10;99.90;;;;;;4989813;28;20720;-52
2022/09/05 02:13:33;;;;;;;10.93;7.73;;;19.10;99.90;;;;;;4996186;28;20308;-52
2022/09/05 02:16:33;;;;;;;9.30;8.40;;;19.10;99.90;;;;;;4994754;28;20277;-53
2022/09/05 02:19:10;;;;;;;10.23;8.23;;;19.10;99.90;;;;;;4975411;28;20256;-52
2022/09/05 02:21:59;;;;;;;9.63;8.13;;;19.10;99.90;;;;;;4993893;28;20239;-53
2022/09/05 02:24:36;;;;;;;10.73;9.17;;;19.10;99.90;;;;;;4988568;28;20649;-52
2022/09/05 02:27:12;;;;;;;10.53;8.80;;;19.10;99.90;;;;;;4996800;28;20272;-53
2022/09/05 02:30:08;;;;;;;11.70;7.83;;;19.10;99.90;;;;;;4995827;28;20860;-52
2022/09/05 02:32:35;;;;;;;11.70;9.10;;;19.10;99.90;;;;;;4997063;28;20715;-52
2022/09/05 02:35:31;;;;;;;11.63;9.40;;;19.10;99.90;;;;;;4995497;28;20883;-53
2022/09/05 02:38:06;;;;;;;10.73;8.53;;;19.10;99.90;;;;;;4961703;28;20680;-53
2022/09/05 02:41:03;;;;;;;12.17;8.97;;;19.10;99.90;;;;;;4994557;28;20210;-53
2022/09/05 02:44:14;;;;;;;13.43;9.00;;;19.10;99.90;;;;;;4994709;28;20304;-52
2022/09/05 02:47:15;;;;;;;10.90;8.53;;;19.00;99.90;;;;;;4993536;28;20210;-53
2022/09/05 02:49:54;;;;;;;11.63;9.23;;;18.90;99.90;;;;;;4993700;28;20673;-52
2022/09/05 02:52:42;;;;;;;11.80;8.90;;;18.90;99.90;;;;;;4996707;28;20236;-52
2022/09/05 02:55:54;;;;;;;13.53;9.27;;;19.00;99.90;;;;;;4992936;28;20740;-51
2022/09/05 02:58:57;;;;;;;12.23;9.23;;;19.00;99.90;;;;;;4996814;28;20661;-53
2022/09/05 03:02:08;;;;;;;11.63;9.73;;;18.90;99.90;;;;;;4998276;28;20205;-52
2022/09/05 03:05:12;;;;;;;11.43;9.63;;;18.90;99.90;;;;;;4989663;28;20217;-53
2022/09/05 03:07:48;;;;;;;11.53;10.10;;;18.80;99.90;;;;;;5028464;28;20209;-53
2022/09/05 03:10:42;;;;;;;12.83;10.23;;;18.80;99.90;;;;;;4992812;28;20293;-52
2022/09/05 03:13:39;;;;;;;14.23;10.90;;;18.80;99.90;;;;;;4996207;28;20224;-53
2022/09/05 03:16:38;;;;;;;13.50;10.97;;;18.70;99.90;;;;;;4990154;28;20194;-53
2022/09/05 03:19:43;;;;;;;15.67;10.77;;;18.70;99.90;;;;;;4993590;28;20283;-55
2022/09/05 03:22:34;;;;;;;14.13;10.40;;;18.70;99.90;;;;;;4997754;28;20688;-52
2022/09/05 03:25:27;;;;;;;11.40;10.17;;;18.60;99.90;;;;;;4991613;28;20209;-52
2022/09/05 03:28:30;;;;;;;12.17;9.93;;;18.70;99.90;;;;;;4995423;28;22700;-53
2022/09/05 03:31:21;;;;;;;15.67;10.10;;;18.60;99.90;;;;;;4992656;28;20994;-52
2022/09/05 03:33:51;;;;;;;13.23;10.70;;;18.60;99.90;;;;;;4992244;28;20206;-53
2022/09/05 03:36:38;;;;;;;12.00;9.80;;;18.60;99.90;;;;;;4997336;28;20694;-53
2022/09/05 03:39:54;;;;;;;11.53;10.13;;;18.60;99.90;;;;;;4996619;28;20217;-52
2022/09/05 03:42:47;;;;;;;11.57;10.03;;;18.60;99.90;;;;;;4981864;28;20243;-52
2022/09/05 03:45:21;;;;;;;14.10;10.83;;;18.60;99.90;;;;;;4993989;28;20227;-52
2022/09/05 03:48:23;;;;;;;11.07;9.97;;;18.50;99.90;;;;;;4996061;28;20220;-52
2022/09/05 03:51:26;;;;;;;11.77;9.93;;;18.40;99.90;;;;;;4992051;28;20244;-53
2022/09/05 03:54:32;;;;;;;11.97;10.47;;;18.50;99.90;;;;;;4994161;28;20234;-52
2022/09/05 03:57:37;;;;;;;13.57;10.33;;;18.60;99.90;;;;;;4993559;28;20200;-52
2022/09/05 04:00:32;;;;;;;12.57;10.60;;;18.50;99.90;;;;;;4995104;28;20626;-53
2022/09/05 04:03:02;;;;;;;15.97;10.83;;;18.40;99.90;;;;;;4998330;28;20665;-53
2022/09/05 04:06:06;;;;;;;15.30;10.50;;;18.40;99.90;;;;;;4991783;28;20200;-53
2022/09/05 04:09:11;;;;;;;12.13;10.30;;;18.20;99.90;;;;;;4994730;28;20314;-52
2022/09/05 04:11:51;;;;;;;13.00;10.90;;;18.30;99.90;;;;;;4993479;28;20217;-52
2022/09/05 04:14:48;;;;;;;15.60;10.13;;;18.40;99.90;;;;;;4981002;28;20287;-53
2022/09/05 04:17:39;;;;;;;18.47;11.17;;;18.30;99.90;;;;;;4996468;28;20240;-53
2022/09/05 04:20:12;;;;;;;13.03;11.07;;;18.40;99.90;;;;;;4992911;28;20668;-53
2022/09/05 04:23:04;;;;;;;13.87;10.33;;;18.40;99.90;;;;;;4985824;28;20240;-52
2022/09/05 04:25:43;;;;;;;12.80;10.07;;;18.30;99.90;;;;;;4998143;28;20201;-52
2022/09/05 04:28:37;;;;;;;12.67;10.03;;;18.40;99.90;;;;;;4994350;28;20213;-52
2022/09/05 04:31:33;;;;;;;12.80;10.67;;;18.30;99.90;;;;;;4985774;28;20768;-52
2022/09/05 04:34:16;;;;;;;16.73;10.90;;;18.30;99.90;;;;;;4994808;28;20722;-52
2022/09/05 04:36:44;;;;;;;14.63;11.10;;;18.30;99.90;;;;;;4994680;28;20208;-53
2022/09/05 04:39:17;;;;;;;15.40;11.37;;;18.30;99.90;;;;;;4994688;28;20675;-53
2022/09/05 04:41:58;;;;;;;13.07;10.60;;;18.30;99.90;;;;;;4996924;28;20228;-53
2022/09/05 04:44:40;;;;;;;15.50;11.43;;;18.30;99.90;;;;;;4998432;28;20252;-53
2022/09/05 04:47:18;;;;;;;15.60;10.73;;;18.30;99.90;;;;;;4996453;28;20266;-54
2022/09/05 04:50:11;;;;;;;12.60;10.73;;;18.30;99.90;;;;;;4993997;28;20202;-53
2022/09/05 04:52:41;;;;;;;14.10;10.97;;;18.30;99.90;;;;;;4990164;28;20669;-52
2022/09/05 04:55:49;;;;;;;16.97;11.33;;;18.20;99.90;;;;;;4986003;28;20281;-53
2022/09/05 04:58:37;;;;;;;15.77;11.73;;;18.10;99.90;;;;;;4965991;28;20215;-52
2022/09/05 05:01:30;;;;;;;14.67;11.40;;;18.10;99.90;;;;;;4994343;28;20618;-52
2022/09/05 05:04:22;;;;;;;12.83;11.33;;;18.10;99.90;;;;;;4993073;28;20218;-52
2022/09/05 05:07:44;;;;;;;14.40;10.53;;;18.20;99.90;;;;;;4995283;28;20210;-52
2022/09/05 05:10:25;;;;;;;12.80;10.00;;;18.20;99.90;;;;;;4980661;28;20762;-52
2022/09/05 05:13:42;;;;;;;12.33;9.83;;;18.20;99.90;;;;;;4991132;28;20228;-53
2022/09/05 05:16:40;;;;;;;16.20;10.23;;;18.20;99.90;;;;;;4990829;28;20210;-52
2022/09/05 05:19:32;;;;;;;14.03;10.90;;;18.20;99.90;;;;;;4988511;28;20210;-52
2022/09/05 05:22:02;;;;;;;16.20;10.57;;;18.20;99.90;;;;;;4989551;28;20658;-53
2022/09/05 05:24:40;;;;;;;15.07;11.10;;;18.20;99.90;;;;;;4995370;28;20236;-53
2022/09/05 05:27:17;;;;;;;14.83;10.77;;;18.20;99.90;;;;;;4983335;28;20197;-53
2022/09/05 05:29:44;;;;;;;15.07;11.07;;;18.20;99.90;;;;;;4987117;28;20724;-52
2022/09/05 05:32:24;;;;;;;17.73;10.97;;;18.10;99.90;;;;;;4991732;28;20588;-52
2022/09/05 05:35:21;;;;;;;22.10;11.60;;;18.10;99.90;;;;;;4998043;28;20203;-52
2022/09/05 05:38:11;;;;;;;15.10;11.33;;;18.20;99.90;;;;;;4996470;28;20237;-52
2022/09/05 05:40:45;;;;;;;14.33;11.03;;;18.10;99.90;;;;;;4985651;28;20640;-53
2022/09/05 05:43:24;;;;;;;15.00;10.10;;;18.20;99.90;;;;;;4992807;28;20280;-52
2022/09/05 05:45:59;;;;;;;14.93;10.83;;;18.20;99.90;;;;;;4983119;28;20213;-53
2022/09/05 05:48:32;;;;;;;12.97;10.57;;;18.30;99.90;;;;;;4980694;28;20206;-52
2022/09/05 05:51:25;;;;;;;16.37;11.90;;;18.30;99.90;;;;;;4979586;28;22508;-53
2022/09/05 05:54:31;;;;;;;16.37;10.80;;;18.30;99.90;;;;;;4983345;28;20245;-53
2022/09/05 05:57:16;;;;;;;13.50;10.43;;;18.30;99.90;;;;;;4989750;28;20232;-52
2022/09/05 05:59:52;;;;;;;12.20;10.50;;;18.40;99.90;;;;;;4985029;28;20296;-52
2022/09/05 06:02:48;;;;;;;11.47;10.27;;;18.50;99.90;;;;;;4988897;28;20687;-54
2022/09/05 06:06:08;;;;;;;11.13;10.03;;;18.50;99.90;;;;;;4990776;28;20221;-54
2022/09/05 06:09:13;;;;;;;12.73;10.37;;;18.60;99.90;;;;;;4992656;28;20208;-53
2022/09/05 06:12:38;;;;;;;12.00;9.97;;;18.60;99.90;;;;;;4984007;28;21118;-52
2022/09/05 06:15:37;;;;;;;14.30;10.70;;;18.70;99.90;;;;;;4992259;28;20674;-53
2022/09/05 06:18:39;;;;;;;11.07;9.83;;;18.80;99.90;;;;;;4981342;28;20281;-52
2022/09/05 06:21:42;;;;;;;13.97;9.33;;;18.90;99.90;;;;;;4989213;28;20193;-53
2022/09/05 06:25:02;;;;;;;17.90;10.57;;;19.00;99.90;;;;;;4994105;28;20213;-53
2022/09/05 06:27:57;;;;;;;12.13;10.10;;;19.00;99.90;;;;;;4993318;28;20205;-53
2022/09/05 06:31:19;;;;;;;14.80;10.83;;;19.10;99.90;;;;;;4994016;28;20200;-53
2022/09/05 06:34:03;;;;;;;12.93;10.53;;;19.10;99.90;;;;;;4992320;28;20217;-53
2022/09/05 06:36:42;;;;;;;14.97;10.60;;;19.20;99.90;;;;;;4992460;28;20226;-53
2022/09/05 06:39:15;;;;;;;14.43;9.63;;;19.30;99.90;;;;;;4989260;28;20685;-53
2022/09/05 06:42:20;;;;;;;11.13;9.33;;;19.40;99.90;;;;;;4990245;28;20661;-53
2022/09/05 06:45:18;;;;;;;15.73;9.50;;;19.60;99.90;;;;;;4991893;28;20206;-52
2022/09/05 06:48:17;;;;;;;12.27;9.40;;;19.80;99.90;;;;;;4996195;28;20241;-52
2022/09/05 06:51:36;;;;;;;15.37;9.70;;;20.00;99.90;;;;;;4993851;28;20698;-53
2022/09/05 06:54:38;;;;;;;10.17;9.00;;;20.30;99.90;;;;;;4993561;28;20237;-54
2022/09/05 06:57:21;;;;;;;10.83;8.93;;;20.50;99.90;;;;;;4990014;28;20200;-52
2022/09/05 07:00:06;;;;;;;12.80;9.23;;;20.70;99.90;;;;;;4985827;28;20372;-53
2022/09/05 07:03:14;;;;;;;9.97;8.77;;;20.90;99.90;;;;;;4995928;28;20205;-54
2022/09/05 07:06:04;;;;;;;14.63;10.37;;;21.10;99.90;;;;;;4982083;28;20205;-54
2022/09/05 07:08:53;;;;;;;14.37;10.00;;;21.20;99.90;;;;;;4984724;28;20654;-57
2022/09/05 07:11:23;;;;;;;11.60;8.87;;;21.40;99.90;;;;;;4990868;28;20206;-54
2022/09/05 07:14:06;;;;;;;10.90;9.03;;;21.50;99.90;;;;;;4981547;28;21020;-54
2022/09/05 07:16:49;;;;;;;9.37;8.30;;;21.50;99.90;;;;;;4992230;28;20229;-53
2022/09/05 07:19:31;;;;;;;10.60;8.73;;;21.70;99.90;;;;;;4625686;28;10000381;-53
2022/09/05 07:22:32;;;;;;;9.83;8.60;;;21.70;99.90;;;;;;4991611;28;20210;-54
2022/09/05 07:25:21;;;;;;;12.53;8.30;;;21.70;99.90;;;;;;4994925;28;20204;-53
2022/09/05 07:28:04;;;;;;;11.33;8.70;;;21.90;99.90;;;;;;4985723;28;20662;-55
2022/09/05 07:31:05;;;;;;;9.33;8.43;;;22.10;99.90;;;;;;4977574;28;20361;-53
2022/09/05 07:33:35;;;;;;;9.73;8.23;;;22.30;99.90;;;;;;4983067;28;20692;-53
2022/09/05 07:36:10;;;;;;;10.90;8.10;;;22.10;99.90;;;;;;4983450;28;20794;-54
2022/09/05 07:38:38;;;;;;;8.60;7.63;;;22.10;99.90;;;;;;4985742;28;20209;-53
2022/09/05 07:41:30;;;;;;;10.10;8.13;;;22.20;99.90;;;;;;4974789;28;20225;-54
2022/09/05 07:44:07;;;;;;;8.07;7.13;;;22.50;99.90;;;;;;4981980;28;20590;-54
2022/09/05 07:46:37;;;;;;;9.43;6.67;;;22.60;99.90;;;;;;4980640;28;20237;-52
2022/09/05 07:49:06;;;;;;;9.63;7.17;;;22.60;99.90;;;;;;4987020;28;20300;-53
2022/09/05 07:51:36;;;;;;;10.47;6.50;;;22.60;99.90;;;;;;4984651;28;20358;-54
2022/09/05 07:54:30;;;;;;;7.07;5.87;;;22.70;99.90;;;;;;4985154;28;20607;-54
2022/09/05 07:57:22;;;;;;;7.60;5.70;;;22.80;99.90;;;;;;4989656;28;20207;-53
2022/09/05 08:00:10;;;;;;;6.07;5.47;;;22.80;99.90;;;;;;4989981;28;20194;-53
2022/09/05 08:02:59;;;;;;;8.87;5.57;;;22.90;99.90;;;;;;4978180;28;20201;-53
2022/09/05 08:05:36;;;;;;;6.33;5.00;;;23.10;99.90;;;;;;4986317;28;20203;-54
2022/09/05 08:08:09;;;;;;;6.63;4.67;;;23.20;99.90;;;;;;4986172;28;20741;-53
2022/09/05 08:11:03;;;;;;;8.23;4.83;;;23.30;99.90;;;;;;4987082;28;20215;-54
2022/09/05 08:13:59;;;;;;;8.00;4.60;;;23.60;99.90;;;;;;4984614;28;20232;-54
2022/09/05 08:16:46;;;;;;;5.60;3.50;;;23.80;99.90;;;;;;4980582;28;20206;-54
2022/09/05 08:19:58;;;;;;;6.07;3.77;;;23.80;99.90;;;;;;4986586;28;20791;-54
2022/09/05 08:22:48;;;;;;;3.87;3.20;;;23.90;99.90;;;;;;4977148;28;20215;-55
2022/09/05 08:25:32;;;;;;;6.97;3.43;;;24.00;99.90;;;;;;4986985;28;20552;-54
2022/09/05 08:28:26;;;;;;;4.50;3.07;;;24.20;99.90;;;;;;4985389;28;20903;-54
2022/09/05 08:31:10;;;;;;;8.43;3.10;;;24.60;99.90;;;;;;4985179;28;20312;-54
2022/09/05 08:33:38;;;;;;;3.97;2.73;;;24.80;99.90;;;;;;4984918;28;20249;-54
2022/09/05 08:36:09;;;;;;;5.73;3.00;;;24.80;99.90;;;;;;4987950;28;20206;-53
2022/09/05 08:38:39;;;;;;;3.00;2.40;;;25.00;99.90;;;;;;4989012;28;20193;-55
2022/09/05 08:41:23;;;;;;;4.43;2.80;;;25.20;99.90;;;;;;4984769;28;20292;-54
2022/09/05 08:45:01;;;;;;;4.50;2.73;;;25.00;99.90;;;;;;4984044;28;20206;-54
2022/09/05 08:48:09;;;;;;;6.63;2.43;;;25.10;99.90;;;;;;4941763;28;20218;-54
2022/09/05 08:50:54;;;;;;;4.10;2.10;;;25.50;99.90;;;;;;4977315;28;20236;-53
2022/09/05 08:53:42;;;;;;;7.57;2.90;;;26.00;99.90;;;;;;4989435;28;20253;-55
2022/09/05 08:56:20;;;;;;;8.90;2.20;;;26.20;99.90;;;;;;4987674;28;20205;-54
2022/09/05 08:58:46;;;;;;;5.13;2.00;;;26.30;99.90;;;;;;4990083;28;20236;-54
2022/09/05 09:01:30;;;;;;;7.50;2.40;;;26.40;99.90;;;;;;4983223;28;20289;-57
2022/09/05 09:04:25;;;;;;;5.22;2.58;;;26.50;99.90;;;;;;4983224;28;20205;-54
2022/09/05 09:07:35;;;;;;;3.58;2.10;;;26.70;99.90;;;;;;4987369;28;20209;-54
2022/09/05 09:10:38;;;;;;;5.27;1.93;;;26.80;99.90;;;;;;4988234;28;20237;-54
2022/09/05 09:13:07;;;;;;;4.33;2.13;;;26.90;99.90;;;;;;4978812;28;20697;-54
2022/09/05 09:15:43;;;;;;;5.72;2.03;;;27.00;99.90;;;;;;4993246;28;20283;-54
2022/09/05 09:18:20;;;;;;;5.07;1.98;;;27.30;99.90;;;;;;4986693;28;20206;-55
2022/09/05 09:21:09;;;;;;;5.40;2.13;;;27.50;99.90;;;;;;4986277;28;20241;-54
2022/09/05 09:23:41;;;;;;;2.05;1.75;;;27.60;99.90;;;;;;4971460;28;20292;-55
2022/09/05 09:26:16;;;;;;;4.97;2.00;;;27.90;99.90;;;;;;4988069;28;20458;-54
2022/09/05 09:28:45;;;;;;;3.67;2.33;;;28.00;99.90;;;;;;4984412;28;20212;-54
2022/09/05 09:31:54;;;;;;;6.15;1.88;;;28.10;99.90;;;;;;5010776;28;20198;-56
2022/09/05 09:34:28;;;;;;;3.55;1.95;;;27.70;99.90;;;;;;4979909;28;20313;-54
2022/09/05 09:37:13;;;;;;;2.42;1.48;;;28.10;99.90;;;;;;4986251;28;20200;-55
2022/09/05 09:39:59;;;;;;;4.03;1.52;;;27.60;99.90;;;;;;4994037;28;20261;-55
2022/09/05 09:42:52;;;;;;;3.38;1.77;;;27.50;99.90;;;;;;4989816;28;20220;-55
2022/09/05 09:45:30;;;;;;;2.95;1.20;;;27.60;99.90;;;;;;4987981;28;20213;-55
2022/09/05 09:47:57;;;;;;;2.60;1.50;;;27.60;99.90;;;;;;4991693;28;20648;-55
2022/09/05 09:50:43;;;;;;;2.05;1.42;;;27.70;99.90;;;;;;4992940;28;20241;-55
2022/09/05 09:53:36;;;;;;;3.17;1.98;;;27.70;99.90;;;;;;4991129;28;20677;-55
2022/09/05 09:56:40;;;;;;;1.80;1.25;;;28.20;99.90;;;;;;4989930;28;20225;-55
2022/09/05 09:59:25;;;;;;;3.78;1.60;;;28.00;99.90;;;;;;4984689;28;20283;-55
2022/09/05 10:02:39;;;;;;;2.22;1.40;;;28.00;99.90;;;;;;4985614;28;20646;-54
2022/09/05 10:05:44;;;;;;;1.50;1.23;;;28.20;99.90;;;;;;4962571;28;20231;-54
2022/09/05 10:08:51;;;;;;;2.92;1.33;;;28.30;99.90;;;;;;4983231;28;20232;-56
2022/09/05 10:12:06;;;;;;;4.53;1.30;;;28.20;99.90;;;;;;4980085;28;20225;-54
2022/09/05 10:14:58;;;;;;;1.98;1.25;;;28.20;99.90;;;;;;4986570;28;20229;-54
2022/09/05 10:17:57;;;;;;;1.77;1.33;;;28.10;99.90;;;;;;4980002;28;20657;-55
2022/09/05 10:20:43;;;;;;;2.80;1.43;;;28.30;99.90;;;;;;4982729;28;21829;-55
2022/09/05 10:23:40;;;;;;;1.73;1.33;;;28.10;99.90;;;;;;4977803;28;20205;-56
2022/09/05 10:26:41;;;;;;;1.73;1.47;;;28.00;99.90;;;;;;4982220;28;20220;-55
2022/09/05 10:29:29;;;;;;;3.50;1.70;;;28.30;99.90;;;;;;4983786;28;21008;-54
2022/09/05 10:32:13;;;;;;;2.60;1.30;;;28.10;99.90;;;;;;4979218;28;20212;-55
2022/09/05 10:35:06;;;;;;;2.17;1.17;;;28.20;99.90;;;;;;4982629;28;20245;-54
2022/09/05 10:38:13;;;;;;;2.23;1.20;;;28.30;99.90;;;;;;4987163;28;20225;-55
2022/09/05 10:40:44;;;;;;;1.50;1.00;;;28.20;99.90;;;;;;4981765;28;20297;-54
2022/09/05 10:43:38;;;;;;;1.97;1.10;;;28.30;99.90;;;;;;4981352;28;20206;-54
2022/09/05 10:46:50;;;;;;;1.77;1.30;;;28.40;99.90;;;;;;4975952;28;20309;-54
2022/09/05 10:49:27;;;;;;;3.13;1.17;;;28.50;99.90;;;;;;4908155;29;20625;-54
2022/09/05 10:52:02;;;;;;;1.70;1.07;;;28.50;99.90;;;;;;4906587;29;20321;-55
2022/09/05 10:55:16;;;;;;;2.03;1.33;;;28.60;99.90;;;;;;4959448;28;20251;-54
2022/09/05 10:58:29;;;;;;;4.83;1.30;;;28.80;99.90;;;;;;4979669;28;20202;-54
2022/09/05 11:01:25;;;;;;;3.03;1.27;;;28.60;99.90;;;;;;4981087;28;20669;-54
2022/09/05 11:04:38;;;;;;;2.70;1.03;;;28.60;99.90;;;;;;4986981;28;20214;-56
2022/09/05 11:07:40;;;;;;;1.50;1.40;;;28.70;99.90;;;;;;4967065;28;20213;-56
2022/09/05 11:10:33;;;;;;;3.33;1.30;;;28.80;99.90;;;;;;4981161;28;20202;-55
2022/09/05 11:13:42;;;;;;;4.97;1.53;;;29.00;99.90;;;;;;4970412;28;20239;-55
2022/09/05 11:16:14;;;;;;;1.47;1.03;;;29.20;99.90;;;;;;4947281;28;20628;-55
2022/09/05 11:18:55;;;;;;;1.03;1.00;;;29.40;99.90;;;;;;4945063;28;20975;-54
2022/09/05 11:21:50;;;;;;;2.07;1.10;;;29.40;99.90;;;;;;4946013;28;20644;-55
2022/09/05 11:24:59;;;;;;;2.70;1.20;;;29.40;99.90;;;;;;4940215;28;20585;-53
2022/09/05 11:27:46;;;;;;;2.90;1.10;;;29.50;99.90;;;;;;4950139;28;20306;-54
2022/09/05 11:30:15;;;;;;;2.20;1.10;;;29.40;99.90;;;;;;4963452;28;20265;-53
2022/09/05 11:33:27;;;;;;;1.37;1.23;;;29.60;99.90;;;;;;4946066;28;20242;-55
2022/09/05 11:36:24;;;;;;;2.55;1.40;;;30.10;99.90;;;;;;4943313;28;20330;-54
2022/09/05 11:39:50;;;;;;;3.38;1.02;;;30.00;99.90;;;;;;4945581;28;20222;-54
2022/09/05 11:43:06;;;;;;;1.90;1.00;;;30.40;99.90;;;;;;4940489;28;20265;-56
2022/09/05 11:46:11;;;;;;;1.35;1.02;;;30.20;99.90;;;;;;4949451;28;20242;-55
2022/09/05 11:49:12;;;;;;;1.95;1.30;;;30.60;99.90;;;;;;4973843;28;20929;-55
2022/09/05 11:52:02;;;;;;;3.42;1.52;;;30.60;99.90;;;;;;4976104;28;20324;-56
2022/09/05 11:54:47;;;;;;;2.78;1.35;;;30.50;99.90;;;;;;4986587;28;20241;-55
2022/09/05 11:57:22;;;;;;;2.50;1.33;;;30.70;99.90;;;;;;4984437;28;20852;-55
2022/09/05 12:00:11;;;;;;;1.63;1.33;;;31.10;99.90;;;;;;4985813;28;20190;-55
2022/09/05 12:03:37;;;;;;;1.40;1.30;;;31.00;99.90;;;;;;4984846;28;20205;-54
2022/09/05 12:06:39;;;;;;;3.10;1.30;;;31.30;99.90;;;;;;4987401;28;20570;-54
2022/09/05 12:09:31;;;;;;;1.17;1.08;;;31.50;99.90;;;;;;4980081;28;20221;-55
2022/09/05 12:12:36;;;;;;;0.98;0.88;;;31.20;99.90;;;;;;4985861;28;20205;-54
2022/09/05 12:15:33;;;;;;;1.48;1.00;;;30.50;99.90;;;;;;4989486;28;20842;-55
2022/09/05 12:18:28;;;;;;;2.53;0.98;;;30.20;99.90;;;;;;4986478;28;20208;-54
2022/09/05 12:21:17;;;;;;;2.17;1.27;;;30.10;99.90;;;;;;4984765;28;20232;-57
2022/09/05 12:23:48;;;;;;;2.13;1.00;;;30.70;99.90;;;;;;4987626;28;20257;-55
2022/09/05 12:26:39;;;;;;;3.15;1.20;;;30.90;99.90;;;;;;4982249;28;20216;-55
2022/09/05 12:29:29;;;;;;;2.72;1.20;;;31.00;99.90;;;;;;4981510;28;20202;-55
2022/09/05 12:32:12;;;;;;;3.75;1.38;;;31.40;99.90;;;;;;4977695;28;20212;-55
2022/09/05 12:35:01;;;;;;;1.35;1.20;;;31.40;99.90;;;;;;4979795;28;20230;-54
2022/09/05 12:38:11;;;;;;;1.42;1.00;;;31.60;99.90;;;;;;4979172;28;20410;-53
2022/09/05 12:41:25;;;;;;;2.22;1.05;;;31.80;99.90;;;;;;4980670;28;20233;-54
2022/09/05 12:44:20;;;;;;;3.17;1.48;;;31.70;99.90;;;;;;4983301;28;20214;-54
2022/09/05 12:47:09;;;;;;;1.73;1.38;;;32.00;99.90;;;;;;4985766;28;20634;-54
2022/09/05 12:50:05;;;;;;;2.65;0.95;;;31.80;99.90;;;;;;4976667;28;20229;-55
2022/09/05 12:53:00;;;;;;;1.77;1.20;;;31.90;99.90;;;;;;4978567;28;20204;-54
2022/09/05 12:55:41;;;;;;;3.35;1.58;;;31.80;99.90;;;;;;4978903;28;20670;-57
2022/09/05 12:58:27;;;;;;;2.15;1.48;;;32.10;99.90;;;;;;4982278;28;20208;-56
2022/09/05 13:01:17;;;;;;;4.85;1.10;;;32.20;99.90;;;;;;4978858;28;20213;-59
2022/09/05 13:04:23;;;;;;;2.00;1.30;;;32.20;99.90;;;;;;4981645;28;20646;-58
2022/09/05 13:07:08;;;;;;;4.18;1.30;;;32.70;99.90;;;;;;4980147;28;20698;-59
2022/09/05 13:09:36;;;;;;;1.33;1.23;;;33.20;99.90;;;;;;4975163;28;20209;-58
2022/09/05 13:12:37;;;;;;;1.73;1.10;;;32.90;99.90;;;;;;4986472;28;20206;-57
2022/09/05 13:15:25;;;;;;;3.25;1.23;;;32.90;99.90;;;;;;4972567;28;20721;-56
2022/09/05 13:18:08;;;;;;;1.58;1.30;;;33.30;99.90;;;;;;4986432;28;20202;-56
2022/09/05 13:20:49;;;;;;;1.27;1.17;;;33.80;99.90;;;;;;4974060;28;20206;-56
2022/09/05 13:23:15;;;;;;;1.58;1.40;;;33.20;99.90;;;;;;4978969;28;20575;-57
2022/09/05 13:25:49;;;;;;;2.97;1.27;;;33.60;99.90;;;;;;4971772;28;20554;-57
2022/09/05 13:28:18;;;;;;;3.20;1.13;;;33.40;99.90;;;;;;4975247;28;20706;-58
2022/09/05 13:30:56;;;;;;;1.90;1.23;;;32.90;99.90;;;;;;4975039;28;20564;-57
2022/09/05 13:33:50;;;;;;;1.80;1.23;;;33.10;99.90;;;;;;4980341;28;20789;-58
2022/09/05 13:37:02;;;;;;;1.48;1.10;;;32.30;99.90;;;;;;4971005;28;20271;-57
2022/09/05 13:39:55;;;;;;;3.38;1.65;;;33.40;99.90;;;;;;4977600;28;20209;-57
2022/09/05 13:42:27;;;;;;;1.52;1.40;;;34.50;99.90;;;;;;4975861;28;20487;-55
2022/09/05 13:44:59;;;;;;;1.88;1.77;;;33.80;99.90;;;;;;4980396;28;20241;-55
2022/09/05 13:47:35;;;;;;;3.58;1.42;;;32.90;99.90;;;;;;4979723;28;20558;-55
2022/09/05 13:50:16;;;;;;;5.22;1.20;;;32.70;99.90;;;;;;4983830;28;20288;-57
2022/09/05 13:52:51;;;;;;;1.83;1.10;;;32.20;99.90;;;;;;4936194;28;20209;-57
2022/09/05 13:55:41;;;;;;;1.30;1.13;;;32.20;99.90;;;;;;4932006;28;20230;-55
2022/09/05 13:58:40;;;;;;;2.10;1.38;;;32.10;99.90;;;;;;4933080;28;20671;-56
2022/09/05 14:01:29;;;;;;;2.65;1.60;;;31.80;99.90;;;;;;4927888;28;20238;-55
2022/09/05 14:04:22;;;;;;;2.08;1.42;;;31.80;99.90;;;;;;4933285;28;20326;-55
2022/09/05 14:07:50;;;;;;;2.92;1.60;;;31.80;99.90;;;;;;4940802;28;20215;-55
2022/09/05 14:10:27;;;;;;;2.40;1.20;;;31.70;99.90;;;;;;4929489;28;20210;-56
2022/09/05 14:13:05;;;;;;;3.97;1.73;;;31.50;99.90;;;;;;4931361;28;20341;-55
2022/09/05 14:15:41;;;;;;;2.05;1.10;;;31.50;99.90;;;;;;4939108;28;20671;-55
2022/09/05 14:18:15;;;;;;;2.58;1.05;;;31.60;99.90;;;;;;4941860;28;20610;-55
2022/09/05 14:21:15;;;;;;;2.28;1.88;;;31.50;99.90;;;;;;4936868;28;20203;-57
2022/09/05 14:24:09;;;;;;;1.08;0.98;;;31.20;99.90;;;;;;4941126;28;20210;-54
2022/09/05 14:26:37;;;;;;;1.90;1.58;;;31.00;99.90;;;;;;4937554;28;20203;-55
2022/09/05 14:29:17;;;;;;;4.07;2.00;;;30.90;99.90;;;;;;4938192;28;20199;-55
2022/09/05 14:32:18;;;;;;;3.28;1.70;;;30.80;99.90;;;;;;4939338;28;20210;-55
2022/09/05 14:35:31;;;;;;;1.73;1.40;;;30.70;99.90;;;;;;4945359;28;20638;-56
2022/09/05 14:38:37;;;;;;;1.48;1.23;;;30.70;99.90;;;;;;4942105;28;20211;-55